sensor_id;sensor_type;location;lat;lon;timestamp;temperature;humidity
12477;DHT22;6303;51.504;6.300;2023-03-14T00:00:15;23.40;52.60
12477;DHT22;6303;51.504;6.300;2023-03-14T00:02:42;23.40;52.60
12477;DHT22;6303;51.504;6.300;2023-03-14T00:05:11;23.90;52.80
12477;DHT22;6303;51.504;6.300;2023-03-14T00:07:38;23.30;52.50
12477;DHT22;6303;51.504;6.300;2023-03-14T00:10:08;23.30;52.60
12477;DHT22;6303;51.504;6.300;2023-03-14T00:12:36;23.30;52.50
12477;DHT22;6303;51.504;6.300;2023-03-14T00:15:04;23.30;52.50
12477;DHT22;6303;51.504;6.300;2023-03-14T00:17:33;23.30;52.50
12477;DHT22;6303;51.504;6.300;2023-03-14T00:20:00;23.30;52.50
12477;DHT22;6303;51.504;6.300;2023-03-14T00:22:35;23.40;52.50
12477;DHT22;6303;51.504;6.300;2023-03-14T00:25:03;23.40;52.50
12477;DHT22;6303;51.504;6.300;2023-03-14T00:27:31;23.40;52.50
12477;DHT22;6303;51.504;6.300;2023-03-14T00:29:58;23.40;52.50
12477;DHT22;6303;51.504;6.300;2023-03-14T00:32:26;23.40;52.50
12477;DHT22;6303;51.504;6.300;2023-03-14T00:34:53;23.40;52.50
12477;DHT22;6303;51.504;6.300;2023-03-14T00:37:20;23.40;52.50
12477;DHT22;6303;51.504;6.300;2023-03-14T00:39:48;23.40;52.40
12477;DHT22;6303;51.504;6.300;2023-03-14T00:42:15;23.40;52.30
12477;DHT22;6303;51.504;6.300;2023-03-14T00:44:42;23.40;52.30
12477;DHT22;6303;51.504;6.300;2023-03-14T00:47:09;23.40;52.40
12477;DHT22;6303;51.504;6.300;2023-03-14T00:49:36;23.40;52.40
12477;DHT22;6303;51.504;6.300;2023-03-14T00:52:03;23.40;52.30
12477;DHT22;6303;51.504;6.300;2023-03-14T00:54:31;23.50;52.20
12477;DHT22;6303;51.504;6.300;2023-03-14T00:56:59;23.50;52.10
12477;DHT22;6303;51.504;6.300;2023-03-14T00:59:26;23.50;52.30
12477;DHT22;6303;51.504;6.300;2023-03-14T01:01:53;23.50;52.10
12477;DHT22;6303;51.504;6.300;2023-03-14T01:04:20;23.50;52.10
12477;DHT22;6303;51.504;6.300;2023-03-14T01:06:48;23.50;52.00
12477;DHT22;6303;51.504;6.300;2023-03-14T01:09:15;23.50;52.00
12477;DHT22;6303;51.504;6.300;2023-03-14T01:11:43;23.50;51.90
12477;DHT22;6303;51.504;6.300;2023-03-14T01:14:13;23.50;51.90
12477;DHT22;6303;51.504;6.300;2023-03-14T01:16:40;23.50;51.90
12477;DHT22;6303;51.504;6.300;2023-03-14T01:19:08;23.50;51.80
12477;DHT22;6303;51.504;6.300;2023-03-14T01:21:36;23.50;51.80
12477;DHT22;6303;51.504;6.300;2023-03-14T01:24:04;23.50;51.80
12477;DHT22;6303;51.504;6.300;2023-03-14T01:26:33;23.50;51.80
12477;DHT22;6303;51.504;6.300;2023-03-14T01:29:01;23.50;51.80
12477;DHT22;6303;51.504;6.300;2023-03-14T01:31:32;23.50;51.80
12477;DHT22;6303;51.504;6.300;2023-03-14T01:33:59;23.50;51.80
12477;DHT22;6303;51.504;6.300;2023-03-14T01:36:27;23.50;51.80
12477;DHT22;6303;51.504;6.300;2023-03-14T01:38:54;23.40;51.80
12477;DHT22;6303;51.504;6.300;2023-03-14T01:41:24;23.50;51.80
12477;DHT22;6303;51.504;6.300;2023-03-14T01:43:53;23.40;51.70
12477;DHT22;6303;51.504;6.300;2023-03-14T01:46:25;23.40;51.80
12477;DHT22;6303;51.504;6.300;2023-03-14T01:49:02;23.40;51.80
12477;DHT22;6303;51.504;6.300;2023-03-14T01:51:36;23.40;51.80
12477;DHT22;6303;51.504;6.300;2023-03-14T01:54:10;23.40;51.90
12477;DHT22;6303;51.504;6.300;2023-03-14T01:56:39;23.40;51.80
12477;DHT22;6303;51.504;6.300;2023-03-14T01:59:10;23.40;51.80
12477;DHT22;6303;51.504;6.300;2023-03-14T02:01:41;23.40;51.80
12477;DHT22;6303;51.504;6.300;2023-03-14T02:04:11;23.40;51.80
12477;DHT22;6303;51.504;6.300;2023-03-14T02:06:48;23.40;51.90
12477;DHT22;6303;51.504;6.300;2023-03-14T02:09:18;23.40;51.80
12477;DHT22;6303;51.504;6.300;2023-03-14T02:11:46;23.40;51.80
12477;DHT22;6303;51.504;6.300;2023-03-14T02:14:36;23.40;52.00
12477;DHT22;6303;51.504;6.300;2023-03-14T02:17:30;23.30;51.90
12477;DHT22;6303;51.504;6.300;2023-03-14T02:20:30;23.30;52.00
12477;DHT22;6303;51.504;6.300;2023-03-14T02:23:00;23.30;52.10
12477;DHT22;6303;51.504;6.300;2023-03-14T02:25:38;23.30;52.10
12477;DHT22;6303;51.504;6.300;2023-03-14T02:28:08;23.30;52.10
12477;DHT22;6303;51.504;6.300;2023-03-14T02:30:37;23.30;52.00
12477;DHT22;6303;51.504;6.300;2023-03-14T02:33:06;23.20;52.00
12477;DHT22;6303;51.504;6.300;2023-03-14T02:35:37;23.20;52.00
12477;DHT22;6303;51.504;6.300;2023-03-14T02:38:11;23.20;52.10
12477;DHT22;6303;51.504;6.300;2023-03-14T02:40:44;23.20;52.10
12477;DHT22;6303;51.504;6.300;2023-03-14T02:43:12;23.20;52.20
12477;DHT22;6303;51.504;6.300;2023-03-14T02:45:45;23.20;52.40
12477;DHT22;6303;51.504;6.300;2023-03-14T02:48:17;23.10;52.20
12477;DHT22;6303;51.504;6.300;2023-03-14T02:50:46;23.10;52.20
12477;DHT22;6303;51.504;6.300;2023-03-14T02:53:18;23.10;52.20
12477;DHT22;6303;51.504;6.300;2023-03-14T02:55:47;23.10;52.20
12477;DHT22;6303;51.504;6.300;2023-03-14T02:58:19;23.00;52.20
12477;DHT22;6303;51.504;6.300;2023-03-14T03:00:50;23.10;52.30
12477;DHT22;6303;51.504;6.300;2023-03-14T03:03:18;23.10;52.30
12477;DHT22;6303;51.504;6.300;2023-03-14T03:05:48;23.00;52.20
12477;DHT22;6303;51.504;6.300;2023-03-14T03:08:16;23.00;52.20
12477;DHT22;6303;51.504;6.300;2023-03-14T03:10:43;23.00;52.20
12477;DHT22;6303;51.504;6.300;2023-03-14T03:13:10;23.00;52.30
12477;DHT22;6303;51.504;6.300;2023-03-14T03:15:39;23.00;52.40
12477;DHT22;6303;51.504;6.300;2023-03-14T03:18:06;23.00;52.40
12477;DHT22;6303;51.504;6.300;2023-03-14T03:20:34;23.00;52.50
12477;DHT22;6303;51.504;6.300;2023-03-14T03:23:01;23.00;52.40
12477;DHT22;6303;51.504;6.300;2023-03-14T03:25:29;22.90;52.30
12477;DHT22;6303;51.504;6.300;2023-03-14T03:27:57;22.90;52.50
12477;DHT22;6303;51.504;6.300;2023-03-14T03:30:24;22.90;52.40
12477;DHT22;6303;51.504;6.300;2023-03-14T03:32:52;22.90;52.40
12477;DHT22;6303;51.504;6.300;2023-03-14T03:35:19;22.90;52.30
12477;DHT22;6303;51.504;6.300;2023-03-14T03:37:46;23.00;52.50
12477;DHT22;6303;51.504;6.300;2023-03-14T03:40:13;23.00;52.50
12477;DHT22;6303;51.504;6.300;2023-03-14T03:42:40;23.00;52.50
12477;DHT22;6303;51.504;6.300;2023-03-14T03:45:10;23.00;52.40
12477;DHT22;6303;51.504;6.300;2023-03-14T03:47:46;23.00;52.40
12477;DHT22;6303;51.504;6.300;2023-03-14T03:50:15;23.00;52.30
12477;DHT22;6303;51.504;6.300;2023-03-14T03:52:42;23.00;52.30
12477;DHT22;6303;51.504;6.300;2023-03-14T03:55:09;23.00;52.30
12477;DHT22;6303;51.504;6.300;2023-03-14T03:57:36;23.00;52.30
12477;DHT22;6303;51.504;6.300;2023-03-14T04:00:04;23.00;52.20
12477;DHT22;6303;51.504;6.300;2023-03-14T04:02:40;23.00;52.30
12477;DHT22;6303;51.504;6.300;2023-03-14T04:05:09;22.90;52.20
12477;DHT22;6303;51.504;6.300;2023-03-14T04:07:41;23.00;52.30
12477;DHT22;6303;51.504;6.300;2023-03-14T04:10:15;22.90;52.20
12477;DHT22;6303;51.504;6.300;2023-03-14T04:12:48;22.90;52.20
12477;DHT22;6303;51.504;6.300;2023-03-14T04:15:20;22.90;52.20
12477;DHT22;6303;51.504;6.300;2023-03-14T04:17:51;23.00;52.30
12477;DHT22;6303;51.504;6.300;2023-03-14T04:20:18;23.00;52.40
12477;DHT22;6303;51.504;6.300;2023-03-14T04:22:47;23.00;52.30
12477;DHT22;6303;51.504;6.300;2023-03-14T04:25:14;23.00;52.30
12477;DHT22;6303;51.504;6.300;2023-03-14T04:27:47;23.00;52.30
12477;DHT22;6303;51.504;6.300;2023-03-14T04:30:18;22.90;52.60
12477;DHT22;6303;51.504;6.300;2023-03-14T04:32:52;22.90;52.30
12477;DHT22;6303;51.504;6.300;2023-03-14T04:35:21;22.90;52.40
12477;DHT22;6303;51.504;6.300;2023-03-14T04:37:54;22.90;52.50
12477;DHT22;6303;51.504;6.300;2023-03-14T04:40:22;22.90;52.50
12477;DHT22;6303;51.504;6.300;2023-03-14T04:42:52;22.90;52.50
12477;DHT22;6303;51.504;6.300;2023-03-14T04:45:20;22.90;52.60
12477;DHT22;6303;51.504;6.300;2023-03-14T04:47:48;22.90;52.40
12477;DHT22;6303;51.504;6.300;2023-03-14T04:50:18;22.90;52.30
12477;DHT22;6303;51.504;6.300;2023-03-14T04:52:46;22.90;52.30
12477;DHT22;6303;51.504;6.300;2023-03-14T04:55:15;22.90;52.50
12477;DHT22;6303;51.504;6.300;2023-03-14T04:57:43;22.90;52.30
12477;DHT22;6303;51.504;6.300;2023-03-14T05:00:11;20.40;51.30
12477;DHT22;6303;51.504;6.300;2023-03-14T05:03:14;22.90;52.30
12477;DHT22;6303;51.504;6.300;2023-03-14T05:06:20;22.90;52.40
12477;DHT22;6303;51.504;6.300;2023-03-14T05:09:08;22.90;52.50
12477;DHT22;6303;51.504;6.300;2023-03-14T05:11:55;22.90;52.50
12477;DHT22;6303;51.504;6.300;2023-03-14T05:14:31;22.80;52.50
12477;DHT22;6303;51.504;6.300;2023-03-14T05:17:13;22.80;52.60
12477;DHT22;6303;51.504;6.300;2023-03-14T05:20:03;22.80;52.50
12477;DHT22;6303;51.504;6.300;2023-03-14T05:22:49;22.80;52.60
12477;DHT22;6303;51.504;6.300;2023-03-14T05:25:49;22.80;53.10
12477;DHT22;6303;51.504;6.300;2023-03-14T05:28:39;22.90;52.30
12477;DHT22;6303;51.504;6.300;2023-03-14T05:31:28;22.80;52.50
12477;DHT22;6303;51.504;6.300;2023-03-14T05:34:15;22.80;52.60
12477;DHT22;6303;51.504;6.300;2023-03-14T05:37:08;22.70;52.70
12477;DHT22;6303;51.504;6.300;2023-03-14T05:40:08;22.80;52.80
12477;DHT22;6303;51.504;6.300;2023-03-14T05:42:58;22.80;52.60
12477;DHT22;6303;51.504;6.300;2023-03-14T05:45:47;22.80;52.60
12477;DHT22;6303;51.504;6.300;2023-03-14T05:48:35;22.80;52.60
12477;DHT22;6303;51.504;6.300;2023-03-14T05:51:32;22.80;52.70
12477;DHT22;6303;51.504;6.300;2023-03-14T05:54:10;22.80;52.80
12477;DHT22;6303;51.504;6.300;2023-03-14T05:56:55;22.70;52.70
12477;DHT22;6303;51.504;6.300;2023-03-14T05:59:38;22.70;52.80
12477;DHT22;6303;51.504;6.300;2023-03-14T06:02:33;22.70;52.80
12477;DHT22;6303;51.504;6.300;2023-03-14T06:05:08;22.80;52.80
12477;DHT22;6303;51.504;6.300;2023-03-14T06:07:35;22.80;52.80
12477;DHT22;6303;51.504;6.300;2023-03-14T06:10:06;22.80;52.90
12477;DHT22;6303;51.504;6.300;2023-03-14T06:12:33;22.70;53.30
12477;DHT22;6303;51.504;6.300;2023-03-14T06:15:00;22.70;53.50
12477;DHT22;6303;51.504;6.300;2023-03-14T06:17:28;22.90;53.40
12477;DHT22;6303;51.504;6.300;2023-03-14T06:20:03;22.90;53.30
12477;DHT22;6303;51.504;6.300;2023-03-14T06:22:31;22.70;53.60
12477;DHT22;6303;51.504;6.300;2023-03-14T06:24:58;22.60;54.00
12477;DHT22;6303;51.504;6.300;2023-03-14T06:27:25;22.60;54.20
12477;DHT22;6303;51.504;6.300;2023-03-14T06:29:55;22.60;54.10
12477;DHT22;6303;51.504;6.300;2023-03-14T06:32:23;22.50;54.00
12477;DHT22;6303;51.504;6.300;2023-03-14T06:34:53;22.50;54.10
12477;DHT22;6303;51.504;6.300;2023-03-14T06:37:21;22.60;54.10
12477;DHT22;6303;51.504;6.300;2023-03-14T06:39:49;22.60;53.90
12477;DHT22;6303;51.504;6.300;2023-03-14T06:42:29;22.60;53.70
12477;DHT22;6303;51.504;6.300;2023-03-14T06:44:56;22.60;53.70
12477;DHT22;6303;51.504;6.300;2023-03-14T06:47:25;22.70;53.60
12477;DHT22;6303;51.504;6.300;2023-03-14T06:49:53;22.80;53.70
12477;DHT22;6303;51.504;6.300;2023-03-14T06:52:21;22.60;53.60
12477;DHT22;6303;51.504;6.300;2023-03-14T06:54:48;22.60;53.60
12477;DHT22;6303;51.504;6.300;2023-03-14T06:57:17;22.10;53.30
12477;DHT22;6303;51.504;6.300;2023-03-14T06:59:44;22.60;53.60
12477;DHT22;6303;51.504;6.300;2023-03-14T07:02:12;22.70;53.40
12477;DHT22;6303;51.504;6.300;2023-03-14T07:04:41;22.60;53.30
12477;DHT22;6303;51.504;6.300;2023-03-14T07:07:08;22.60;53.20
12477;DHT22;6303;51.504;6.300;2023-03-14T07:09:37;22.70;53.30
12477;DHT22;6303;51.504;6.300;2023-03-14T07:12:05;22.60;53.10
12477;DHT22;6303;51.504;6.300;2023-03-14T07:14:32;22.60;53.10
12477;DHT22;6303;51.504;6.300;2023-03-14T07:16:59;22.60;53.10
12477;DHT22;6303;51.504;6.300;2023-03-14T07:19:27;22.60;53.10
12477;DHT22;6303;51.504;6.300;2023-03-14T07:21:54;22.60;53.10
12477;DHT22;6303;51.504;6.300;2023-03-14T07:24:24;22.70;53.10
12477;DHT22;6303;51.504;6.300;2023-03-14T07:26:52;22.80;52.90
12477;DHT22;6303;51.504;6.300;2023-03-14T07:29:19;23.00;53.00
12477;DHT22;6303;51.504;6.300;2023-03-14T07:31:47;22.80;52.80
12477;DHT22;6303;51.504;6.300;2023-03-14T07:34:18;22.80;52.60
12477;DHT22;6303;51.504;6.300;2023-03-14T07:36:45;22.80;52.60
12477;DHT22;6303;51.504;6.300;2023-03-14T07:39:12;22.90;52.50
12477;DHT22;6303;51.504;6.300;2023-03-14T07:41:51;22.90;52.50
12477;DHT22;6303;51.504;6.300;2023-03-14T07:44:24;23.00;52.40
12477;DHT22;6303;51.504;6.300;2023-03-14T07:46:52;23.00;52.20
12477;DHT22;6303;51.504;6.300;2023-03-14T07:49:19;23.10;52.10
12477;DHT22;6303;51.504;6.300;2023-03-14T07:51:47;23.10;52.00
12477;DHT22;6303;51.504;6.300;2023-03-14T07:54:15;23.10;52.00
12477;DHT22;6303;51.504;6.300;2023-03-14T07:56:42;23.10;52.00
12477;DHT22;6303;51.504;6.300;2023-03-14T07:59:10;23.20;52.00
12477;DHT22;6303;51.504;6.300;2023-03-14T08:01:38;23.20;52.00
12477;DHT22;6303;51.504;6.300;2023-03-14T08:04:05;23.20;52.00
12477;DHT22;6303;51.504;6.300;2023-03-14T08:06:32;23.20;51.90
12477;DHT22;6303;51.504;6.300;2023-03-14T08:08:59;23.20;51.80
12477;DHT22;6303;51.504;6.300;2023-03-14T08:11:26;23.20;51.80
12477;DHT22;6303;51.504;6.300;2023-03-14T08:13:53;23.20;51.80
12477;DHT22;6303;51.504;6.300;2023-03-14T08:16:21;23.20;51.80
12477;DHT22;6303;51.504;6.300;2023-03-14T08:18:48;23.20;51.80
12477;DHT22;6303;51.504;6.300;2023-03-14T08:21:15;23.20;51.80
12477;DHT22;6303;51.504;6.300;2023-03-14T08:23:42;23.20;51.70
12477;DHT22;6303;51.504;6.300;2023-03-14T08:26:09;23.20;51.80
12477;DHT22;6303;51.504;6.300;2023-03-14T08:28:36;23.20;51.70
12477;DHT22;6303;51.504;6.300;2023-03-14T08:31:03;23.20;51.70
12477;DHT22;6303;51.504;6.300;2023-03-14T08:33:32;23.20;51.70
12477;DHT22;6303;51.504;6.300;2023-03-14T08:36:00;23.20;51.80
12477;DHT22;6303;51.504;6.300;2023-03-14T08:38:28;23.20;51.80
12477;DHT22;6303;51.504;6.300;2023-03-14T08:40:56;23.20;51.70
12477;DHT22;6303;51.504;6.300;2023-03-14T08:43:23;23.20;51.70
12477;DHT22;6303;51.504;6.300;2023-03-14T08:45:50;23.20;51.50
12477;DHT22;6303;51.504;6.300;2023-03-14T08:48:17;23.20;51.50
12477;DHT22;6303;51.504;6.300;2023-03-14T08:50:46;23.20;51.50
12477;DHT22;6303;51.504;6.300;2023-03-14T08:53:13;23.30;51.50
12477;DHT22;6303;51.504;6.300;2023-03-14T08:55:40;23.30;51.40
12477;DHT22;6303;51.504;6.300;2023-03-14T08:58:07;23.30;51.30
12477;DHT22;6303;51.504;6.300;2023-03-14T09:00:34;23.30;51.30
12477;DHT22;6303;51.504;6.300;2023-03-14T09:03:02;23.30;51.30
12477;DHT22;6303;51.504;6.300;2023-03-14T09:05:29;23.30;51.20
12477;DHT22;6303;51.504;6.300;2023-03-14T09:08:00;23.30;51.20
12477;DHT22;6303;51.504;6.300;2023-03-14T09:10:27;23.30;51.00
12477;DHT22;6303;51.504;6.300;2023-03-14T09:12:54;23.30;51.00
12477;DHT22;6303;51.504;6.300;2023-03-14T09:15:22;23.30;50.90
12477;DHT22;6303;51.504;6.300;2023-03-14T09:17:49;23.40;50.90
12477;DHT22;6303;51.504;6.300;2023-03-14T09:20:17;23.30;50.90
12477;DHT22;6303;51.504;6.300;2023-03-14T09:22:44;23.40;50.80
12477;DHT22;6303;51.504;6.300;2023-03-14T09:25:12;23.40;50.70
12477;DHT22;6303;51.504;6.300;2023-03-14T09:27:39;23.50;50.60
12477;DHT22;6303;51.504;6.300;2023-03-14T09:30:07;23.50;50.50
12477;DHT22;6303;51.504;6.300;2023-03-14T09:32:35;23.60;50.40
12477;DHT22;6303;51.504;6.300;2023-03-14T09:35:02;23.60;50.30
12477;DHT22;6303;51.504;6.300;2023-03-14T09:37:29;23.60;50.90
12477;DHT22;6303;51.504;6.300;2023-03-14T09:39:56;23.60;50.20
12477;DHT22;6303;51.504;6.300;2023-03-14T09:42:26;23.60;50.20
12477;DHT22;6303;51.504;6.300;2023-03-14T09:44:57;23.60;50.10
12477;DHT22;6303;51.504;6.300;2023-03-14T09:47:26;23.60;50.10
12477;DHT22;6303;51.504;6.300;2023-03-14T09:49:53;23.60;50.10
12477;DHT22;6303;51.504;6.300;2023-03-14T09:52:23;23.60;50.10
12477;DHT22;6303;51.504;6.300;2023-03-14T09:54:53;23.50;50.10
12477;DHT22;6303;51.504;6.300;2023-03-14T09:57:26;23.50;50.20
12477;DHT22;6303;51.504;6.300;2023-03-14T09:59:56;23.40;50.10
12477;DHT22;6303;51.504;6.300;2023-03-14T10:02:26;23.50;50.10
12477;DHT22;6303;51.504;6.300;2023-03-14T10:04:55;23.50;50.00
12477;DHT22;6303;51.504;6.300;2023-03-14T10:07:29;23.40;49.90
12477;DHT22;6303;51.504;6.300;2023-03-14T10:09:57;23.40;49.90
12477;DHT22;6303;51.504;6.300;2023-03-14T10:12:33;23.40;50.00
12477;DHT22;6303;51.504;6.300;2023-03-14T10:15:03;23.40;49.90
12477;DHT22;6303;51.504;6.300;2023-03-14T10:17:38;23.30;49.80
12477;DHT22;6303;51.504;6.300;2023-03-14T10:20:07;23.40;49.90
12477;DHT22;6303;51.504;6.300;2023-03-14T10:22:36;23.40;49.80
12477;DHT22;6303;51.504;6.300;2023-03-14T10:25:05;23.40;49.70
12477;DHT22;6303;51.504;6.300;2023-03-14T10:27:36;23.30;49.70
12477;DHT22;6303;51.504;6.300;2023-03-14T10:30:07;23.40;49.70
12477;DHT22;6303;51.504;6.300;2023-03-14T10:32:45;23.40;49.70
12477;DHT22;6303;51.504;6.300;2023-03-14T10:35:20;23.40;49.70
12477;DHT22;6303;51.504;6.300;2023-03-14T10:37:51;23.40;49.80
12477;DHT22;6303;51.504;6.300;2023-03-14T10:40:24;23.40;49.70
12477;DHT22;6303;51.504;6.300;2023-03-14T10:42:54;23.40;49.50
12477;DHT22;6303;51.504;6.300;2023-03-14T10:45:36;23.40;49.30
12477;DHT22;6303;51.504;6.300;2023-03-14T10:48:19;23.50;49.30
12477;DHT22;6303;51.504;6.300;2023-03-14T10:50:54;23.50;49.20
12477;DHT22;6303;51.504;6.300;2023-03-14T10:53:21;23.60;49.20
12477;DHT22;6303;51.504;6.300;2023-03-14T10:55:49;23.60;49.00
12477;DHT22;6303;51.504;6.300;2023-03-14T10:58:23;23.60;48.90
12477;DHT22;6303;51.504;6.300;2023-03-14T11:00:58;23.60;48.80
12477;DHT22;6303;51.504;6.300;2023-03-14T11:03:28;23.60;49.40
12477;DHT22;6303;51.504;6.300;2023-03-14T11:05:59;23.60;48.70
12477;DHT22;6303;51.504;6.300;2023-03-14T11:08:31;23.60;48.70
12477;DHT22;6303;51.504;6.300;2023-03-14T11:11:07;23.70;48.60
12477;DHT22;6303;51.504;6.300;2023-03-14T11:13:43;23.70;48.60
12477;DHT22;6303;51.504;6.300;2023-03-14T11:16:19;23.70;48.60
12477;DHT22;6303;51.504;6.300;2023-03-14T11:21:39;23.70;48.60
12477;DHT22;6303;51.504;6.300;2023-03-14T11:27:18;23.60;48.60
12477;DHT22;6303;51.504;6.300;2023-03-14T11:29:54;23.60;48.50
12477;DHT22;6303;51.504;6.300;2023-03-14T11:32:34;23.60;48.50
12477;DHT22;6303;51.504;6.300;2023-03-14T11:35:04;23.60;48.50
12477;DHT22;6303;51.504;6.300;2023-03-14T11:37:36;23.60;48.50
12477;DHT22;6303;51.504;6.300;2023-03-14T11:40:13;23.60;48.50
12477;DHT22;6303;51.504;6.300;2023-03-14T11:42:44;23.70;48.40
12477;DHT22;6303;51.504;6.300;2023-03-14T11:45:18;23.70;48.30
12477;DHT22;6303;51.504;6.300;2023-03-14T11:47:50;23.70;48.10
12477;DHT22;6303;51.504;6.300;2023-03-14T11:50:21;23.80;48.10
12477;DHT22;6303;51.504;6.300;2023-03-14T11:52:52;23.80;47.90
12477;DHT22;6303;51.504;6.300;2023-03-14T11:55:24;23.80;48.00
12477;DHT22;6303;51.504;6.300;2023-03-14T11:57:56;23.70;48.00
12477;DHT22;6303;51.504;6.300;2023-03-14T12:00:26;23.80;48.10
12477;DHT22;6303;51.504;6.300;2023-03-14T12:02:59;23.70;48.10
12477;DHT22;6303;51.504;6.300;2023-03-14T12:05:46;23.80;48.00
12477;DHT22;6303;51.504;6.300;2023-03-14T12:08:40;23.80;47.90
12477;DHT22;6303;51.504;6.300;2023-03-14T12:13:53;23.80;47.60
12477;DHT22;6303;51.504;6.300;2023-03-14T12:16:36;23.70;47.60
12477;DHT22;6303;51.504;6.300;2023-03-14T12:19:37;23.80;47.60
12477;DHT22;6303;51.504;6.300;2023-03-14T12:22:17;23.70;47.60
12477;DHT22;6303;51.504;6.300;2023-03-14T12:24:49;23.70;47.70
12477;DHT22;6303;51.504;6.300;2023-03-14T12:27:45;23.70;47.60
12477;DHT22;6303;51.504;6.300;2023-03-14T12:30:25;23.70;47.40
12477;DHT22;6303;51.504;6.300;2023-03-14T12:36:18;23.70;47.40
12477;DHT22;6303;51.504;6.300;2023-03-14T12:39:00;23.80;47.20
12477;DHT22;6303;51.504;6.300;2023-03-14T12:41:37;23.80;47.10
12477;DHT22;6303;51.504;6.300;2023-03-14T12:44:37;23.90;47.00
12477;DHT22;6303;51.504;6.300;2023-03-14T12:47:41;23.90;46.90
12477;DHT22;6303;51.504;6.300;2023-03-14T12:50:15;24.00;46.80
12477;DHT22;6303;51.504;6.300;2023-03-14T12:55:54;24.00;46.70
12477;DHT22;6303;51.504;6.300;2023-03-14T12:58:28;24.00;46.60
12477;DHT22;6303;51.504;6.300;2023-03-14T13:01:00;24.00;46.30
12477;DHT22;6303;51.504;6.300;2023-03-14T13:03:39;23.90;46.20
12477;DHT22;6303;51.504;6.300;2023-03-14T13:06:09;23.90;46.20
12477;DHT22;6303;51.504;6.300;2023-03-14T13:08:40;23.90;46.20
12477;DHT22;6303;51.504;6.300;2023-03-14T13:11:10;24.00;46.20
12477;DHT22;6303;51.504;6.300;2023-03-14T13:13:42;23.90;46.20
12477;DHT22;6303;51.504;6.300;2023-03-14T13:16:16;24.00;46.10
12477;DHT22;6303;51.504;6.300;2023-03-14T13:18:44;24.10;46.20
12477;DHT22;6303;51.504;6.300;2023-03-14T13:21:15;24.10;46.00
12477;DHT22;6303;51.504;6.300;2023-03-14T13:23:57;24.20;45.90
12477;DHT22;6303;51.504;6.300;2023-03-14T13:26:32;24.20;45.90
12477;DHT22;6303;51.504;6.300;2023-03-14T13:28:59;24.20;45.70
12477;DHT22;6303;51.504;6.300;2023-03-14T13:31:26;24.30;45.50
12477;DHT22;6303;51.504;6.300;2023-03-14T13:33:59;24.20;45.40
12477;DHT22;6303;51.504;6.300;2023-03-14T13:36:27;24.30;45.50
12477;DHT22;6303;51.504;6.300;2023-03-14T13:38:59;24.30;45.40
12477;DHT22;6303;51.504;6.300;2023-03-14T13:41:27;24.30;45.30
12477;DHT22;6303;51.504;6.300;2023-03-14T13:44:00;24.30;45.30
12477;DHT22;6303;51.504;6.300;2023-03-14T13:46:28;24.30;45.40
12477;DHT22;6303;51.504;6.300;2023-03-14T13:48:58;24.20;45.30
12477;DHT22;6303;51.504;6.300;2023-03-14T13:51:27;24.20;45.30
12477;DHT22;6303;51.504;6.300;2023-03-14T13:53:59;24.20;45.20
12477;DHT22;6303;51.504;6.300;2023-03-14T13:56:28;24.20;45.10
12477;DHT22;6303;51.504;6.300;2023-03-14T13:58:56;24.20;44.90
12477;DHT22;6303;51.504;6.300;2023-03-14T14:01:25;24.20;44.80
12477;DHT22;6303;51.504;6.300;2023-03-14T14:03:55;24.20;44.80
12477;DHT22;6303;51.504;6.300;2023-03-14T14:06:29;24.20;44.60
12477;DHT22;6303;51.504;6.300;2023-03-14T14:08:59;24.20;44.80
12477;DHT22;6303;51.504;6.300;2023-03-14T14:11:40;24.10;44.80
12477;DHT22;6303;51.504;6.300;2023-03-14T14:14:11;24.10;45.00
12477;DHT22;6303;51.504;6.300;2023-03-14T14:16:39;24.10;45.00
12477;DHT22;6303;51.504;6.300;2023-03-14T14:19:06;24.10;45.10
12477;DHT22;6303;51.504;6.300;2023-03-14T14:21:33;24.10;44.80
12477;DHT22;6303;51.504;6.300;2023-03-14T14:24:03;24.10;44.60
12477;DHT22;6303;51.504;6.300;2023-03-14T14:26:31;24.10;44.40
12477;DHT22;6303;51.504;6.300;2023-03-14T14:29:00;24.10;44.60
12477;DHT22;6303;51.504;6.300;2023-03-14T14:31:27;24.10;44.70
12477;DHT22;6303;51.504;6.300;2023-03-14T14:33:56;24.10;44.70
12477;DHT22;6303;51.504;6.300;2023-03-14T14:36:26;24.10;44.60
12477;DHT22;6303;51.504;6.300;2023-03-14T14:38:59;25.00;45.10
12477;DHT22;6303;51.504;6.300;2023-03-14T14:41:29;24.10;44.60
12477;DHT22;6303;51.504;6.300;2023-03-14T14:43:57;24.00;44.50
12477;DHT22;6303;51.504;6.300;2023-03-14T14:46:28;24.10;44.40
12477;DHT22;6303;51.504;6.300;2023-03-14T14:48:57;24.00;44.50
12477;DHT22;6303;51.504;6.300;2023-03-14T14:51:27;24.00;44.30
12477;DHT22;6303;51.504;6.300;2023-03-14T14:54:10;24.00;44.30
12477;DHT22;6303;51.504;6.300;2023-03-14T14:56:39;24.00;44.20
12477;DHT22;6303;51.504;6.300;2023-03-14T14:59:20;24.00;44.30
12477;DHT22;6303;51.504;6.300;2023-03-14T15:01:48;24.00;45.00
12477;DHT22;6303;51.504;6.300;2023-03-14T15:04:16;24.00;44.20
12477;DHT22;6303;51.504;6.300;2023-03-14T15:06:45;23.90;42.30
12477;DHT22;6303;51.504;6.300;2023-03-14T15:09:14;23.80;42.60
12477;DHT22;6303;51.504;6.300;2023-03-14T15:11:43;23.80;42.10
12477;DHT22;6303;51.504;6.300;2023-03-14T15:14:10;23.80;41.60
12477;DHT22;6303;51.504;6.300;2023-03-14T15:16:39;23.80;41.10
12477;DHT22;6303;51.504;6.300;2023-03-14T15:19:12;23.80;41.10
12477;DHT22;6303;51.504;6.300;2023-03-14T15:21:41;23.80;41.40
12477;DHT22;6303;51.504;6.300;2023-03-14T15:24:09;23.70;41.80
12477;DHT22;6303;51.504;6.300;2023-03-14T15:26:36;23.80;41.10
12477;DHT22;6303;51.504;6.300;2023-03-14T15:29:05;23.80;41.10
12477;DHT22;6303;51.504;6.300;2023-03-14T15:31:34;23.80;40.80
12477;DHT22;6303;51.504;6.300;2023-03-14T15:34:02;23.70;40.70
12477;DHT22;6303;51.504;6.300;2023-03-14T15:36:30;23.70;40.30
12477;DHT22;6303;51.504;6.300;2023-03-14T15:38:58;23.70;39.80
12477;DHT22;6303;51.504;6.300;2023-03-14T15:41:27;23.70;39.40
12477;DHT22;6303;51.504;6.300;2023-03-14T15:43:54;23.70;39.20
12477;DHT22;6303;51.504;6.300;2023-03-14T15:46:23;23.60;39.40
12477;DHT22;6303;51.504;6.300;2023-03-14T15:48:51;23.70;39.70
12477;DHT22;6303;51.504;6.300;2023-03-14T15:51:18;23.60;39.80
12477;DHT22;6303;51.504;6.300;2023-03-14T15:53:45;23.60;39.40
12477;DHT22;6303;51.504;6.300;2023-03-14T15:56:14;23.60;39.00
12477;DHT22;6303;51.504;6.300;2023-03-14T15:58:41;23.60;38.80
12477;DHT22;6303;51.504;6.300;2023-03-14T16:01:12;23.50;38.70
12477;DHT22;6303;51.504;6.300;2023-03-14T16:03:40;23.50;38.90
12477;DHT22;6303;51.504;6.300;2023-03-14T16:06:09;23.50;38.90
12477;DHT22;6303;51.504;6.300;2023-03-14T16:08:36;23.50;39.00
12477;DHT22;6303;51.504;6.300;2023-03-14T16:11:03;23.50;39.10
12477;DHT22;6303;51.504;6.300;2023-03-14T16:13:31;23.40;39.30
12477;DHT22;6303;51.504;6.300;2023-03-14T16:15:59;23.40;39.30
12477;DHT22;6303;51.504;6.300;2023-03-14T16:18:28;23.40;39.20
12477;DHT22;6303;51.504;6.300;2023-03-14T16:20:58;23.40;39.30
12477;DHT22;6303;51.504;6.300;2023-03-14T16:23:26;23.30;39.30
12477;DHT22;6303;51.504;6.300;2023-03-14T16:25:54;23.30;39.50